createdAt,value
2019-05-07T00:01:06.770Z,4.60
2019-05-07T00:03:34.671Z,4.60
2019-05-07T00:06:02.874Z,4.70
2019-05-07T00:08:32.184Z,4.60
2019-05-07T00:11:02.130Z,4.60
2019-05-07T00:13:29.826Z,4.60
2019-05-07T00:15:57.612Z,4.60
2019-05-07T00:18:25.465Z,4.60
2019-05-07T00:20:53.391Z,4.50
2019-05-07T00:23:23.208Z,4.50
2019-05-07T00:25:52.769Z,4.50
2019-05-07T00:28:22.819Z,4.40
2019-05-07T00:30:52.137Z,4.40
2019-05-07T00:33:22.561Z,4.30
2019-05-07T00:35:57.093Z,4.30
2019-05-07T00:38:26.688Z,4.20
2019-05-07T00:41:12.393Z,4.20
2019-05-07T00:43:42.864Z,4.10
2019-05-07T00:46:14.267Z,4.10
2019-05-07T00:48:42.426Z,4.10
2019-05-07T00:51:26.111Z,4.10
2019-05-07T00:53:53.995Z,4.10
2019-05-07T00:56:22.459Z,4.10
2019-05-07T00:58:52.738Z,4.10
2019-05-07T01:01:22.690Z,4.20
2019-05-07T01:03:53.336Z,4.20
2019-05-07T01:06:22.771Z,4.30
2019-05-07T01:08:52.535Z,4.30
2019-05-07T01:11:22.468Z,4.40
2019-05-07T01:13:52.010Z,4.40
2019-05-07T01:16:22.003Z,4.50
2019-05-07T01:18:49.720Z,4.60
2019-05-07T01:21:17.951Z,4.70
2019-05-07T01:23:45.767Z,4.70
2019-05-07T01:26:13.556Z,4.80
2019-05-07T01:29:02.424Z,4.90
2019-05-07T01:31:34.088Z,4.90
2019-05-07T01:34:23.103Z,5.00
2019-05-07T01:36:52.387Z,5.00
2019-05-07T01:39:20.301Z,5.00
2019-05-07T01:41:48.118Z,5.10
2019-05-07T01:44:15.911Z,5.20
2019-05-07T01:46:43.725Z,5.20
2019-05-07T01:49:12.493Z,5.30
2019-05-07T01:51:42.232Z,5.30
2019-05-07T01:54:10.149Z,5.30
2019-05-07T01:56:38.391Z,5.30
2019-05-07T01:59:06.205Z,5.30
2019-05-07T02:01:35.821Z,5.30
2019-05-07T02:04:10.310Z,5.30
2019-05-07T02:06:57.702Z,5.30
2019-05-07T02:09:42.417Z,5.30
2019-05-07T02:12:14.146Z,5.20
2019-05-07T02:14:42.320Z,5.10
2019-05-07T02:17:10.212Z,5.10
2019-05-07T02:19:37.985Z,5.20
2019-05-07T02:22:05.804Z,5.20
2019-05-07T02:24:34.035Z,5.20
2019-05-07T02:27:03.013Z,5.20
2019-05-07T02:29:32.363Z,5.10
2019-05-07T02:32:04.174Z,5.10
2019-05-07T02:34:33.905Z,5.10
2019-05-07T02:37:03.795Z,5.00
2019-05-07T02:39:45.014Z,4.90
2019-05-07T02:42:13.210Z,4.80
2019-05-07T02:45:13.178Z,4.80
2019-05-07T02:47:40.143Z,4.70
2019-05-07T02:50:15.805Z,4.70
2019-05-07T02:53:08.962Z,4.60
2019-05-07T02:55:43.441Z,4.60
2019-05-07T02:58:13.717Z,4.70
2019-05-07T03:00:43.431Z,4.70
2019-05-07T03:03:13.659Z,4.70
2019-05-07T03:05:43.016Z,4.80
2019-05-07T03:08:12.968Z,4.80
2019-05-07T03:10:39.835Z,4.80
2019-05-07T03:13:07.716Z,4.80
2019-05-07T03:15:35.613Z,4.90
2019-05-07T03:18:03.777Z,4.90
2019-05-07T03:20:38.172Z,5.00
2019-05-07T03:23:07.586Z,5.00
2019-05-07T03:25:55.008Z,5.10
2019-05-07T03:28:24.486Z,5.20
2019-05-07T03:30:58.387Z,5.30
2019-05-07T03:33:36.548Z,5.50
2019-05-07T03:36:06.894Z,5.60
2019-05-07T03:38:33.726Z,5.80
2019-05-07T03:41:03.686Z,5.80
2019-05-07T03:43:32.550Z,5.80
2019-05-07T03:46:09.372Z,5.90
2019-05-07T03:48:38.181Z,5.90
2019-05-07T03:51:05.964Z,6.00
2019-05-07T03:53:34.261Z,5.80
2019-05-07T03:56:04.119Z,5.80
2019-05-07T03:58:33.938Z,5.70
2019-05-07T04:01:04.226Z,5.60
2019-05-07T04:03:34.044Z,5.50
2019-05-07T04:06:03.856Z,5.40
2019-05-07T04:08:33.430Z,5.40
2019-05-07T04:11:03.174Z,5.40
2019-05-07T04:13:33.371Z,5.50
2019-05-07T04:16:00.080Z,5.50
2019-05-07T04:18:27.869Z,5.50
2019-05-07T04:20:55.635Z,5.50
2019-05-07T04:23:23.724Z,5.50
2019-05-07T04:26:00.356Z,5.50
2019-05-07T04:29:05.455Z,5.40
2019-05-07T04:31:36.076Z,5.40
2019-05-07T04:34:09.280Z,5.50
2019-05-07T04:36:43.857Z,5.50
2019-05-07T04:39:13.331Z,5.60
2019-05-07T04:41:43.455Z,5.70
2019-05-07T04:44:13.791Z,5.90
2019-05-07T04:46:46.874Z,6.00
2019-05-07T04:49:12.839Z,6.20
2019-05-07T04:52:03.639Z,6.30
2019-05-07T04:54:32.930Z,6.30
2019-05-07T04:57:00.089Z,6.40
2019-05-07T04:59:27.904Z,6.50
2019-05-07T05:02:04.133Z,6.60
2019-05-07T05:04:34.786Z,6.70
2019-05-07T05:07:02.614Z,6.60
2019-05-07T05:09:32.961Z,6.60
2019-05-07T05:12:02.483Z,6.70
2019-05-07T05:14:29.743Z,6.60
2019-05-07T05:16:57.534Z,6.20
2019-05-07T05:19:25.365Z,6.10
2019-05-07T05:22:12.850Z,6.20
2019-05-07T05:24:44.007Z,6.10
2019-05-07T05:27:12.265Z,5.90
2019-05-07T05:29:40.315Z,5.90
2019-05-07T05:32:08.583Z,6.00
2019-05-07T05:34:36.355Z,6.00
2019-05-07T05:37:04.157Z,6.00
2019-05-07T05:39:32.159Z,6.00
2019-05-07T05:42:11.869Z,6.00
2019-05-07T05:44:41.625Z,6.10
2019-05-07T05:47:11.724Z,6.20
2019-05-07T05:49:38.981Z,6.00
2019-05-07T05:52:14.731Z,6.00
2019-05-07T05:55:02.518Z,5.90
2019-05-07T05:57:47.026Z,5.90
2019-05-07T06:00:53.231Z,5.90
2019-05-07T06:03:35.289Z,5.90
2019-05-07T06:06:19.207Z,5.80
2019-05-07T06:09:09.057Z,5.80
2019-05-07T06:12:05.859Z,5.90
2019-05-07T06:14:42.488Z,6.00
2019-05-07T06:17:24.194Z,5.90
2019-05-07T06:20:22.446Z,5.90
2019-05-07T06:23:07.604Z,5.90
2019-05-07T06:25:35.595Z,5.90
2019-05-07T06:28:04.104Z,5.90
2019-05-07T06:30:33.821Z,5.90
2019-05-07T06:33:02.850Z,6.00
2019-05-07T06:35:32.469Z,6.00
2019-05-07T06:38:02.762Z,6.00
2019-05-07T06:40:42.251Z,6.00
2019-05-07T06:43:35.194Z,6.00
2019-05-07T06:46:03.492Z,5.90
2019-05-07T06:48:42.239Z,5.80
2019-05-07T06:51:03.055Z,5.70
2019-05-07T06:53:33.435Z,5.50
2019-05-07T06:56:02.834Z,5.60
2019-05-07T06:58:36.865Z,5.50
2019-05-07T07:01:29.656Z,5.60
2019-05-07T07:04:05.431Z,5.80
2019-05-07T07:06:53.077Z,6.10
2019-05-07T07:09:32.941Z,6.20
2019-05-07T07:12:02.462Z,6.30
2019-05-07T07:14:30.281Z,6.60
2019-05-07T07:16:58.112Z,6.70
2019-05-07T07:19:25.901Z,6.90
2019-05-07T07:21:53.697Z,7.00
2019-05-07T07:24:22.233Z,7.30
2019-05-07T07:26:52.651Z,7.50
2019-05-07T07:29:22.072Z,7.40
2019-05-07T07:31:53.428Z,7.40
2019-05-07T07:34:22.870Z,7.30
2019-05-07T07:37:08.240Z,7.30
2019-05-07T07:39:29.730Z,7.20
2019-05-07T07:41:59.763Z,7.20
2019-05-07T07:44:27.862Z,7.20
2019-05-07T07:46:55.679Z,7.30
2019-05-07T07:49:23.897Z,7.40
2019-05-07T07:51:52.629Z,7.50
2019-05-07T07:54:22.692Z,7.70
2019-05-07T07:57:02.688Z,7.60
2019-05-07T07:59:48.793Z,7.70
2019-05-07T08:02:22.987Z,7.80
2019-05-07T08:04:52.743Z,8.00
2019-05-07T08:07:22.755Z,8.20
2019-05-07T08:09:52.009Z,8.20
2019-05-07T08:12:21.862Z,8.00
2019-05-07T08:14:51.751Z,7.80
2019-05-07T08:17:19.337Z,7.70
2019-05-07T08:19:47.224Z,7.80
2019-05-07T08:22:15.058Z,7.90
2019-05-07T08:24:43.723Z,8.00
2019-05-07T08:27:14.763Z,8.20
2019-05-07T08:29:42.953Z,8.00
2019-05-07T08:32:32.541Z,8.00
2019-05-07T08:35:18.191Z,7.80
2019-05-07T08:37:46.202Z,7.70
2019-05-07T08:40:14.167Z,7.60
2019-05-07T08:42:42.023Z,7.60
2019-05-07T08:45:28.305Z,7.70
2019-05-07T08:47:58.109Z,8.00
2019-05-07T08:50:26.329Z,8.20
2019-05-07T08:52:54.134Z,8.60
2019-05-07T08:55:21.936Z,8.90
2019-05-07T08:57:52.100Z,8.90
2019-05-07T09:00:22.364Z,8.40
2019-05-07T09:02:52.409Z,8.40
2019-05-07T09:05:22.089Z,8.30
2019-05-07T09:07:51.703Z,8.30
2019-05-07T09:10:21.707Z,8.30
2019-05-07T09:12:49.548Z,8.30
2019-05-07T09:15:17.438Z,8.30
2019-05-07T09:17:45.615Z,8.20
2019-05-07T09:20:14.102Z,8.30
2019-05-07T09:22:42.811Z,8.50
2019-05-07T09:25:12.891Z,8.90
2019-05-07T09:27:46.062Z,9.20
2019-05-07T09:30:29.351Z,9.50
2019-05-07T09:33:16.615Z,9.50
2019-05-07T09:35:47.267Z,9.00
2019-05-07T09:38:15.135Z,8.60
2019-05-07T09:40:43.411Z,8.00
2019-05-07T09:43:11.789Z,7.70
2019-05-07T09:45:41.886Z,7.60
2019-05-07T09:48:09.268Z,7.40
2019-05-07T09:50:37.122Z,7.30
2019-05-07T09:53:05.556Z,7.50
2019-05-07T09:55:33.572Z,7.80
2019-05-07T09:58:02.148Z,8.00
2019-05-07T10:00:32.023Z,8.00
2019-05-07T10:03:00.499Z,7.90
2019-05-07T10:05:28.374Z,7.70
2019-05-07T10:07:56.291Z,7.70
2019-05-07T10:10:24.086Z,7.60
2019-05-07T10:12:58.284Z,7.80
2019-05-07T10:15:26.481Z,7.90
2019-05-07T10:18:09.368Z,8.00
2019-05-07T10:20:37.319Z,8.40
2019-05-07T10:23:07.366Z,9.00
2019-05-07T10:25:38.055Z,9.40
2019-05-07T10:28:06.783Z,9.70
2019-05-07T10:30:34.910Z,10.10
2019-05-07T10:33:02.704Z,9.70
2019-05-07T10:35:31.690Z,8.60
2019-05-07T10:38:01.933Z,7.90
2019-05-07T10:40:30.211Z,7.60
2019-05-07T10:42:58.193Z,7.80
2019-05-07T10:45:52.084Z,7.90
2019-05-07T10:48:32.706Z,8.00
2019-05-07T10:51:02.108Z,8.30
2019-05-07T10:53:32.068Z,8.70
2019-05-07T10:56:02.184Z,9.00
2019-05-07T10:58:31.629Z,9.30
2019-05-07T11:01:00.131Z,9.50
2019-05-07T11:03:28.398Z,9.60
2019-05-07T11:05:56.580Z,9.70
2019-05-07T11:08:25.789Z,10.10
2019-05-07T11:10:54.291Z,10.20
2019-05-07T11:13:22.577Z,10.50
2019-05-07T11:15:54.697Z,10.30
2019-05-07T11:18:32.274Z,9.60
2019-05-07T11:21:02.657Z,9.00
2019-05-07T11:23:32.581Z,8.40
2019-05-07T11:26:02.396Z,8.10
2019-05-07T11:28:32.374Z,8.00
2019-05-07T11:31:01.892Z,8.00
2019-05-07T11:33:32.324Z,8.20
2019-05-07T11:36:02.017Z,8.40
2019-05-07T11:38:29.819Z,8.70
2019-05-07T11:40:58.483Z,9.10
2019-05-07T11:43:33.134Z,9.60
2019-05-07T11:46:14.167Z,9.80
2019-05-07T11:48:49.182Z,9.90
2019-05-07T11:51:36.400Z,10.00
2019-05-07T11:54:07.899Z,9.60
2019-05-07T11:56:35.663Z,9.30
2019-05-07T11:59:03.716Z,9.30
2019-05-07T12:01:43.449Z,9.40
2019-05-07T12:04:02.079Z,9.70
2019-05-07T12:06:32.058Z,9.80
2019-05-07T12:08:59.992Z,9.60
2019-05-07T12:11:28.307Z,9.80
2019-05-07T12:13:57.388Z,9.80
2019-05-07T12:16:25.567Z,9.80
2019-05-07T12:18:55.409Z,9.90
2019-05-07T12:21:24.300Z,9.80
2019-05-07T12:23:52.619Z,9.60
2019-05-07T12:26:22.158Z,9.10
2019-05-07T12:28:52.069Z,8.40
2019-05-07T12:31:48.104Z,8.00
2019-05-07T12:34:34.080Z,7.80
2019-05-07T12:37:02.333Z,7.80
2019-05-07T12:39:31.908Z,7.90
2019-05-07T12:42:00.178Z,8.10
2019-05-07T12:44:28.060Z,8.10
2019-05-07T12:46:56.215Z,8.10
2019-05-07T12:49:24.652Z,8.20
2019-05-07T12:52:07.378Z,8.40
2019-05-07T12:54:44.190Z,8.50
2019-05-07T12:57:12.078Z,8.60
2019-05-07T12:59:39.826Z,8.80
2019-05-07T13:02:33.266Z,9.00
2019-05-07T13:04:46.311Z,9.20
2019-05-07T13:07:33.998Z,9.30
2019-05-07T13:10:02.586Z,9.20
2019-05-07T13:12:32.210Z,9.00
2019-05-07T13:15:02.766Z,8.80
2019-05-07T13:17:30.269Z,8.40
2019-05-07T13:19:58.462Z,8.30
2019-05-07T13:22:26.530Z,8.50
2019-05-07T13:24:55.071Z,9.00
2019-05-07T13:27:23.079Z,9.40
2019-05-07T13:29:53.194Z,9.60
2019-05-07T13:32:22.449Z,9.60
2019-05-07T13:34:52.015Z,9.40
2019-05-07T13:37:24.130Z,9.00
2019-05-07T13:40:07.244Z,8.40
2019-05-07T13:42:43.969Z,8.10
2019-05-07T13:45:22.324Z,7.90
2019-05-07T13:47:55.915Z,7.80
2019-05-07T13:50:23.909Z,7.70
2019-05-07T13:52:52.024Z,7.80
2019-05-07T13:55:21.817Z,8.00
2019-05-07T13:57:49.607Z,8.30
2019-05-07T14:00:25.935Z,8.70
2019-05-07T14:02:54.928Z,9.20
2019-05-07T14:05:22.931Z,9.80
2019-05-07T14:07:50.682Z,10.00
2019-05-07T14:10:18.608Z,10.10
2019-05-07T14:12:47.111Z,10.00
2019-05-07T14:15:15.669Z,9.80
2019-05-07T14:17:43.628Z,9.70
2019-05-07T14:20:13.060Z,9.70
2019-05-07T14:22:42.526Z,9.80
2019-05-07T14:25:10.924Z,10.00
2019-05-07T14:27:38.742Z,10.00
2019-05-07T14:30:06.991Z,10.20
2019-05-07T14:32:42.118Z,10.30
2019-05-07T14:35:20.112Z,10.40
2019-05-07T14:37:52.387Z,10.30
2019-05-07T14:40:22.351Z,10.30
2019-05-07T14:42:55.278Z,10.20
2019-05-07T14:45:23.895Z,10.10
2019-05-07T14:47:52.274Z,10.00
2019-05-07T14:50:22.418Z,10.10
2019-05-07T14:52:52.348Z,10.20
2019-05-07T14:55:19.576Z,10.30
2019-05-07T14:57:47.404Z,10.20
2019-05-07T15:00:15.718Z,10.00
2019-05-07T15:02:43.715Z,10.10
2019-05-07T15:05:12.160Z,10.00
2019-05-07T15:07:40.401Z,10.20
2019-05-07T15:10:08.353Z,10.40
2019-05-07T15:12:36.237Z,10.40
2019-05-07T15:15:04.466Z,10.30
2019-05-07T15:17:45.215Z,10.10
2019-05-07T15:20:13.306Z,9.80
2019-05-07T15:23:02.559Z,9.70
2019-05-07T15:25:31.998Z,9.70
2019-05-07T15:28:01.843Z,9.80
2019-05-07T15:30:38.455Z,9.70
2019-05-07T15:33:06.388Z,9.90
2019-05-07T15:35:34.162Z,9.80
2019-05-07T15:38:02.481Z,10.00
2019-05-07T15:40:30.303Z,9.80
2019-05-07T15:42:58.284Z,9.50
2019-05-07T15:45:26.217Z,9.10
2019-05-07T15:47:55.556Z,9.00
2019-05-07T15:50:28.129Z,8.90
2019-05-07T15:53:12.397Z,8.80
2019-05-07T15:55:41.760Z,8.90
2019-05-07T15:58:09.749Z,8.90
2019-05-07T16:00:37.919Z,8.90
2019-05-07T16:03:13.286Z,8.80
2019-05-07T16:05:42.520Z,8.90
2019-05-07T16:08:12.445Z,9.10
2019-05-07T16:10:42.161Z,9.20
2019-05-07T16:13:13.671Z,9.30
2019-05-07T16:15:42.329Z,9.50
2019-05-07T16:18:14.377Z,9.70
2019-05-07T16:20:42.888Z,9.80
2019-05-07T16:23:15.634Z,9.80
2019-05-07T16:25:42.116Z,9.70
2019-05-07T16:28:12.609Z,9.60
2019-05-07T16:30:39.772Z,9.60
2019-05-07T16:33:07.593Z,9.50
2019-05-07T16:35:35.400Z,9.50
2019-05-07T16:38:03.298Z,9.40
2019-05-07T16:40:32.311Z,9.40
2019-05-07T16:43:02.597Z,9.30
2019-05-07T16:45:30.029Z,9.30
2019-05-07T16:48:00.396Z,9.20
2019-05-07T16:50:27.461Z,9.20
2019-05-07T16:52:55.312Z,9.10
2019-05-07T16:55:25.663Z,9.00
2019-05-07T16:58:14.147Z,9.00
2019-05-07T17:00:45.084Z,9.00
2019-05-07T17:03:17.387Z,8.90
2019-05-07T17:05:45.500Z,8.60
2019-05-07T17:08:27.337Z,8.40
2019-05-07T17:10:55.184Z,8.40
2019-05-07T17:13:23.085Z,8.50
2019-05-07T17:15:54.916Z,8.50
2019-05-07T17:18:23.368Z,8.50
2019-05-07T17:20:52.306Z,8.40
2019-05-07T17:23:22.426Z,8.30
2019-05-07T17:25:52.419Z,8.30
2019-05-07T17:28:19.832Z,8.30
2019-05-07T17:30:47.847Z,8.30
2019-05-07T17:33:15.720Z,8.30
2019-05-07T17:35:46.080Z,8.30
2019-05-07T17:38:13.292Z,8.30
2019-05-07T17:40:42.370Z,8.30
2019-05-07T17:43:12.203Z,8.20
2019-05-07T17:45:40.161Z,8.20
2019-05-07T17:48:08.341Z,8.20
2019-05-07T17:50:42.692Z,8.20
2019-05-07T17:53:11.994Z,8.10
2019-05-07T17:55:39.921Z,8.00
2019-05-07T17:58:07.742Z,8.00
2019-05-07T18:00:35.720Z,7.90
2019-05-07T18:03:15.259Z,7.90
2019-05-07T18:05:43.365Z,7.80
2019-05-07T18:08:12.674Z,7.80
2019-05-07T18:10:42.371Z,7.80
2019-05-07T18:13:11.879Z,7.90
2019-05-07T18:15:40.120Z,7.80
2019-05-07T18:18:08.676Z,7.80
2019-05-07T18:20:36.497Z,7.80
2019-05-07T18:23:06.906Z,7.70
2019-05-07T18:25:34.313Z,7.70
2019-05-07T18:28:02.211Z,7.80
2019-05-07T18:30:30.166Z,7.80
2019-05-07T18:33:19.272Z,7.90
2019-05-07T18:35:48.000Z,7.80
2019-05-07T18:38:15.820Z,7.90
2019-05-07T18:40:43.636Z,7.80
2019-05-07T18:43:12.225Z,7.80
2019-05-07T18:45:40.228Z,7.80
2019-05-07T18:48:08.017Z,7.80
2019-05-07T18:50:35.949Z,7.90
2019-05-07T18:53:03.760Z,7.80
2019-05-07T18:55:33.057Z,7.80
2019-05-07T18:58:02.753Z,7.70
2019-05-07T19:00:34.268Z,7.80
2019-05-07T19:03:03.474Z,7.80
2019-05-07T19:05:31.721Z,7.70
2019-05-07T19:08:05.326Z,7.70
2019-05-07T19:10:29.833Z,7.70
2019-05-07T19:12:57.662Z,7.70
2019-05-07T19:15:25.473Z,7.80
2019-05-07T19:17:53.284Z,7.80
2019-05-07T19:20:21.819Z,7.80
2019-05-07T19:22:51.727Z,7.70
2019-05-07T19:25:19.398Z,7.70
2019-05-07T19:27:47.199Z,7.60
2019-05-07T19:30:15.439Z,7.60
2019-05-07T19:32:43.222Z,7.50
2019-05-07T19:35:12.397Z,7.40
2019-05-07T19:37:42.432Z,7.30
2019-05-07T19:40:12.379Z,7.20
2019-05-07T19:42:39.810Z,7.10
2019-05-07T19:45:08.179Z,7.10
2019-05-07T19:47:35.972Z,7.10
2019-05-07T19:50:04.017Z,7.10
2019-05-07T19:52:33.160Z,7.10
2019-05-07T19:55:04.587Z,7.10
2019-05-07T19:57:35.495Z,6.90
2019-05-07T20:00:04.354Z,6.90
2019-05-07T20:02:37.701Z,6.80
2019-05-07T20:05:05.774Z,6.80
2019-05-07T20:07:33.576Z,6.80
2019-05-07T20:10:02.742Z,6.70
2019-05-07T20:12:32.266Z,6.70
2019-05-07T20:15:02.551Z,6.70
2019-05-07T20:17:33.464Z,6.70
2019-05-07T20:20:00.328Z,6.70
2019-05-07T20:22:28.101Z,6.70
2019-05-07T20:24:56.145Z,6.60
2019-05-07T20:27:23.953Z,6.60
2019-05-07T20:29:52.229Z,6.60
2019-05-07T20:32:22.175Z,6.60
2019-05-07T20:34:52.036Z,6.70
2019-05-07T20:37:21.444Z,6.60
2019-05-07T20:39:49.629Z,6.60
2019-05-07T20:42:17.413Z,6.60
2019-05-07T20:44:45.211Z,6.70
2019-05-07T20:47:13.051Z,6.70
2019-05-07T20:49:42.749Z,6.80
2019-05-07T20:52:10.509Z,6.80
2019-05-07T20:54:47.095Z,6.80
2019-05-07T20:57:22.519Z,6.80
2019-05-07T20:59:50.377Z,6.70
2019-05-07T21:02:18.239Z,6.80
2019-05-07T21:04:46.052Z,6.70
2019-05-07T21:07:13.834Z,6.80
2019-05-07T21:09:42.285Z,6.80
2019-05-07T21:12:12.328Z,6.80
2019-05-07T21:14:41.809Z,6.80
2019-05-07T21:17:11.773Z,6.90
2019-05-07T21:19:39.144Z,6.90
2019-05-07T21:22:06.958Z,6.80
2019-05-07T21:24:34.800Z,6.80
2019-05-07T21:27:02.710Z,6.80
2019-05-07T21:29:32.473Z,6.80
2019-05-07T21:32:02.632Z,6.80
2019-05-07T21:34:31.780Z,6.70
2019-05-07T21:36:59.778Z,6.80
2019-05-07T21:39:28.230Z,6.70
2019-05-07T21:41:56.710Z,6.70
2019-05-07T21:44:25.285Z,6.80
2019-05-07T21:46:53.249Z,6.70
2019-05-07T21:49:22.835Z,6.60
2019-05-07T21:51:52.281Z,6.60
2019-05-07T21:54:43.711Z,6.50
2019-05-07T21:57:32.903Z,6.50
2019-05-07T22:00:37.796Z,6.40
2019-05-07T22:03:12.483Z,6.30
2019-05-07T22:05:44.068Z,6.20
2019-05-07T22:08:12.370Z,6.20
2019-05-07T22:10:39.943Z,6.10
2019-05-07T22:13:08.334Z,6.10
2019-05-07T22:18:59.309Z,6.00
2019-05-07T22:21:27.095Z,5.90
2019-05-07T22:23:54.901Z,5.90
2019-05-07T22:26:26.192Z,5.90
2019-05-07T22:28:54.176Z,5.90
2019-05-07T22:31:31.814Z,5.90
2019-05-07T22:34:15.560Z,5.90
2019-05-07T22:36:43.459Z,6.00
2019-05-07T22:39:12.581Z,6.00
2019-05-07T22:41:42.489Z,6.00
2019-05-07T22:44:11.982Z,5.90
2019-05-07T22:46:41.916Z,5.90
2019-05-07T22:49:09.592Z,5.90
2019-05-07T22:51:38.043Z,6.00
2019-05-07T22:54:05.903Z,6.00
2019-05-07T22:56:52.520Z,6.00
2019-05-07T22:59:22.415Z,6.10
2019-05-07T23:01:51.643Z,6.20
2019-05-07T23:04:19.613Z,6.20
2019-05-07T23:06:47.431Z,6.30
2019-05-07T23:09:15.222Z,6.30
2019-05-07T23:11:43.013Z,6.30
2019-05-07T23:14:11.831Z,6.30
2019-05-07T23:16:39.717Z,6.30
2019-05-07T23:19:07.562Z,6.30
2019-05-07T23:21:35.396Z,6.30
2019-05-07T23:24:03.177Z,6.30
2019-05-07T23:26:33.518Z,6.30
2019-05-07T23:29:02.447Z,6.30
2019-05-07T23:31:30.209Z,6.30
2019-05-07T23:33:58.029Z,6.40
2019-05-07T23:36:25.820Z,6.40
2019-05-07T23:38:53.650Z,6.50
2019-05-07T23:41:36.586Z,6.50
2019-05-07T23:44:12.556Z,6.50
2019-05-07T23:46:44.422Z,6.50
2019-05-07T23:49:12.457Z,6.40
2019-05-07T23:51:42.180Z,6.40
2019-05-07T23:54:12.122Z,6.30
2019-05-07T23:56:42.504Z,6.30
2019-05-07T23:59:09.943Z,6.20
